sensor_id;sensor_type;location;lat;lon;timestamp;P1;durP1;ratioP1;P2;durP2;ratioP2
15699;SDS011;7950;42.744;23.174;2022-10-31T00:02:11;7.77;;;4.90;;
15699;SDS011;7950;42.744;23.174;2022-10-31T00:04:40;6.00;;;4.60;;
15699;SDS011;7950;42.744;23.174;2022-10-31T00:10:02;6.67;;;4.90;;
15699;SDS011;7950;42.744;23.174;2022-10-31T00:12:31;6.50;;;4.30;;
15699;SDS011;7950;42.744;23.174;2022-10-31T00:15:00;10.17;;;4.50;;
15699;SDS011;7950;42.744;23.174;2022-10-31T00:20:23;7.63;;;4.67;;
15699;SDS011;7950;42.744;23.174;2022-10-31T00:22:52;6.83;;;4.30;;
15699;SDS011;7950;42.744;23.174;2022-10-31T00:25:20;9.33;;;4.37;;
15699;SDS011;7950;42.744;23.174;2022-10-31T00:27:49;6.37;;;4.67;;
15699;SDS011;7950;42.744;23.174;2022-10-31T00:30:17;5.93;;;4.30;;
15699;SDS011;7950;42.744;23.174;2022-10-31T00:32:46;5.77;;;4.17;;
15699;SDS011;7950;42.744;23.174;2022-10-31T00:35:16;7.63;;;4.20;;
15699;SDS011;7950;42.744;23.174;2022-10-31T00:37:45;6.03;;;4.37;;
15699;SDS011;7950;42.744;23.174;2022-10-31T00:40:13;7.70;;;4.80;;
15699;SDS011;7950;42.744;23.174;2022-10-31T00:42:42;8.53;;;4.60;;
15699;SDS011;7950;42.744;23.174;2022-10-31T00:45:10;6.80;;;4.20;;
15699;SDS011;7950;42.744;23.174;2022-10-31T00:47:39;6.07;;;3.73;;
15699;SDS011;7950;42.744;23.174;2022-10-31T00:50:08;6.20;;;4.10;;
15699;SDS011;7950;42.744;23.174;2022-10-31T00:52:38;6.23;;;4.20;;
15699;SDS011;7950;42.744;23.174;2022-10-31T00:55:06;5.00;;;3.90;;
15699;SDS011;7950;42.744;23.174;2022-10-31T00:57:35;5.83;;;4.20;;
15699;SDS011;7950;42.744;23.174;2022-10-31T01:00:04;4.90;;;4.20;;
15699;SDS011;7950;42.744;23.174;2022-10-31T01:05:25;6.20;;;4.37;;
15699;SDS011;7950;42.744;23.174;2022-10-31T01:07:55;5.43;;;4.33;;
15699;SDS011;7950;42.744;23.174;2022-10-31T01:10:23;5.10;;;3.97;;
15699;SDS011;7950;42.744;23.174;2022-10-31T01:12:52;5.60;;;3.93;;
15699;SDS011;7950;42.744;23.174;2022-10-31T01:15:21;6.60;;;4.30;;
15699;SDS011;7950;42.744;23.174;2022-10-31T01:17:50;6.33;;;4.43;;
15699;SDS011;7950;42.744;23.174;2022-10-31T01:20:19;6.53;;;4.70;;
15699;SDS011;7950;42.744;23.174;2022-10-31T01:22:48;5.17;;;4.53;;
15699;SDS011;7950;42.744;23.174;2022-10-31T01:25:19;5.93;;;5.27;;
15699;SDS011;7950;42.744;23.174;2022-10-31T01:27:47;6.53;;;5.10;;
15699;SDS011;7950;42.744;23.174;2022-10-31T01:30:16;6.33;;;4.80;;
15699;SDS011;7950;42.744;23.174;2022-10-31T01:32:44;8.17;;;4.97;;
15699;SDS011;7950;42.744;23.174;2022-10-31T01:35:13;7.20;;;4.47;;
15699;SDS011;7950;42.744;23.174;2022-10-31T01:37:41;5.60;;;4.30;;
15699;SDS011;7950;42.744;23.174;2022-10-31T01:40:10;6.70;;;4.83;;
15699;SDS011;7950;42.744;23.174;2022-10-31T01:42:40;7.17;;;4.53;;
15699;SDS011;7950;42.744;23.174;2022-10-31T01:45:09;12.93;;;8.90;;
15699;SDS011;7950;42.744;23.174;2022-10-31T01:47:41;11.73;;;7.20;;
15699;SDS011;7950;42.744;23.174;2022-10-31T01:50:24;12.83;;;9.07;;
15699;SDS011;7950;42.744;23.174;2022-10-31T01:52:58;9.60;;;7.20;;
15699;SDS011;7950;42.744;23.174;2022-10-31T01:55:30;8.17;;;5.97;;
15699;SDS011;7950;42.744;23.174;2022-10-31T01:58:05;9.43;;;7.10;;
15699;SDS011;7950;42.744;23.174;2022-10-31T02:00:39;11.87;;;7.93;;
15699;SDS011;7950;42.744;23.174;2022-10-31T02:03:13;10.53;;;7.83;;
15699;SDS011;7950;42.744;23.174;2022-10-31T02:05:42;10.20;;;6.80;;
15699;SDS011;7950;42.744;23.174;2022-10-31T02:08:12;7.43;;;6.27;;
15699;SDS011;7950;42.744;23.174;2022-10-31T02:10:47;7.23;;;5.80;;
15699;SDS011;7950;42.744;23.174;2022-10-31T02:13:18;7.23;;;5.87;;
15699;SDS011;7950;42.744;23.174;2022-10-31T02:15:48;8.87;;;5.80;;
15699;SDS011;7950;42.744;23.174;2022-10-31T02:18:22;9.60;;;5.77;;
15699;SDS011;7950;42.744;23.174;2022-10-31T02:20:58;8.43;;;5.83;;
15699;SDS011;7950;42.744;23.174;2022-10-31T02:23:53;9.67;;;6.07;;
15699;SDS011;7950;42.744;23.174;2022-10-31T02:26:58;9.57;;;6.33;;
15699;SDS011;7950;42.744;23.174;2022-10-31T02:29:50;8.70;;;5.30;;
15699;SDS011;7950;42.744;23.174;2022-10-31T02:32:52;7.83;;;6.00;;
15699;SDS011;7950;42.744;23.174;2022-10-31T02:35:39;7.07;;;5.60;;
15699;SDS011;7950;42.744;23.174;2022-10-31T02:38:24;6.80;;;5.17;;
15699;SDS011;7950;42.744;23.174;2022-10-31T02:41:09;10.07;;;5.90;;
15699;SDS011;7950;42.744;23.174;2022-10-31T02:43:54;8.53;;;5.90;;
15699;SDS011;7950;42.744;23.174;2022-10-31T02:46:35;8.33;;;6.33;;
15699;SDS011;7950;42.744;23.174;2022-10-31T02:49:15;8.17;;;5.63;;
15699;SDS011;7950;42.744;23.174;2022-10-31T02:51:54;9.23;;;6.53;;
15699;SDS011;7950;42.744;23.174;2022-10-31T02:54:23;8.13;;;6.40;;
15699;SDS011;7950;42.744;23.174;2022-10-31T02:56:56;7.63;;;6.30;;
15699;SDS011;7950;42.744;23.174;2022-10-31T02:59:31;9.80;;;7.00;;
15699;SDS011;7950;42.744;23.174;2022-10-31T03:05:13;8.50;;;5.97;;
15699;SDS011;7950;42.744;23.174;2022-10-31T03:08:01;8.33;;;6.67;;
15699;SDS011;7950;42.744;23.174;2022-10-31T03:10:43;8.47;;;5.40;;
15699;SDS011;7950;42.744;23.174;2022-10-31T03:13:21;7.40;;;5.47;;
15699;SDS011;7950;42.744;23.174;2022-10-31T03:16:03;8.20;;;5.30;;
15699;SDS011;7950;42.744;23.174;2022-10-31T03:21:32;8.10;;;6.27;;
15699;SDS011;7950;42.744;23.174;2022-10-31T03:24:07;10.83;;;7.00;;
15699;SDS011;7950;42.744;23.174;2022-10-31T03:26:40;9.70;;;6.40;;
15699;SDS011;7950;42.744;23.174;2022-10-31T03:29:30;10.80;;;6.40;;
15699;SDS011;7950;42.744;23.174;2022-10-31T03:32:04;11.83;;;7.20;;
15699;SDS011;7950;42.744;23.174;2022-10-31T03:34:37;8.57;;;5.77;;
15699;SDS011;7950;42.744;23.174;2022-10-31T03:37:13;9.20;;;5.57;;
15699;SDS011;7950;42.744;23.174;2022-10-31T03:39:47;7.13;;;5.10;;
15699;SDS011;7950;42.744;23.174;2022-10-31T03:42:18;8.43;;;6.27;;
15699;SDS011;7950;42.744;23.174;2022-10-31T03:44:56;6.27;;;5.43;;
15699;SDS011;7950;42.744;23.174;2022-10-31T03:47:31;8.77;;;5.60;;
15699;SDS011;7950;42.744;23.174;2022-10-31T03:50:01;6.07;;;5.37;;
15699;SDS011;7950;42.744;23.174;2022-10-31T03:52:33;8.80;;;5.40;;
15699;SDS011;7950;42.744;23.174;2022-10-31T03:55:09;8.47;;;5.00;;
15699;SDS011;7950;42.744;23.174;2022-10-31T03:57:46;7.50;;;5.30;;
15699;SDS011;7950;42.744;23.174;2022-10-31T04:00:25;5.97;;;4.53;;
15699;SDS011;7950;42.744;23.174;2022-10-31T04:05:52;7.07;;;5.10;;
15699;SDS011;7950;42.744;23.174;2022-10-31T04:08:26;7.17;;;5.43;;
15699;SDS011;7950;42.744;23.174;2022-10-31T04:10:58;7.87;;;4.87;;
15699;SDS011;7950;42.744;23.174;2022-10-31T04:13:31;6.00;;;5.30;;
15699;SDS011;7950;42.744;23.174;2022-10-31T04:16:05;5.97;;;5.23;;
15699;SDS011;7950;42.744;23.174;2022-10-31T04:18:41;8.27;;;5.23;;
15699;SDS011;7950;42.744;23.174;2022-10-31T04:21:10;12.83;;;8.60;;
15699;SDS011;7950;42.744;23.174;2022-10-31T04:23:40;33.77;;;26.43;;
15699;SDS011;7950;42.744;23.174;2022-10-31T04:26:09;16.67;;;13.87;;
15699;SDS011;7950;42.744;23.174;2022-10-31T04:31:33;13.53;;;9.87;;
15699;SDS011;7950;42.744;23.174;2022-10-31T04:34:01;20.23;;;15.80;;
15699;SDS011;7950;42.744;23.174;2022-10-31T04:39:24;24.60;;;21.23;;
15699;SDS011;7950;42.744;23.174;2022-10-31T04:41:55;30.33;;;24.63;;
15699;SDS011;7950;42.744;23.174;2022-10-31T04:44:24;19.77;;;16.20;;
15699;SDS011;7950;42.744;23.174;2022-10-31T04:46:52;12.63;;;9.80;;
15699;SDS011;7950;42.744;23.174;2022-10-31T04:49:21;10.70;;;8.00;;
15699;SDS011;7950;42.744;23.174;2022-10-31T04:51:49;10.47;;;7.97;;
15699;SDS011;7950;42.744;23.174;2022-10-31T04:54:18;10.60;;;7.77;;
15699;SDS011;7950;42.744;23.174;2022-10-31T04:56:48;10.37;;;7.27;;
15699;SDS011;7950;42.744;23.174;2022-10-31T04:59:16;11.73;;;6.60;;
15699;SDS011;7950;42.744;23.174;2022-10-31T05:01:44;9.00;;;6.97;;
15699;SDS011;7950;42.744;23.174;2022-10-31T05:04:13;8.23;;;6.40;;
15699;SDS011;7950;42.744;23.174;2022-10-31T05:06:41;7.03;;;5.67;;
15699;SDS011;7950;42.744;23.174;2022-10-31T05:09:13;8.13;;;5.80;;
15699;SDS011;7950;42.744;23.174;2022-10-31T05:11:41;10.97;;;6.30;;
15699;SDS011;7950;42.744;23.174;2022-10-31T05:14:11;7.50;;;5.40;;
15699;SDS011;7950;42.744;23.174;2022-10-31T05:16:40;8.53;;;6.00;;
15699;SDS011;7950;42.744;23.174;2022-10-31T05:19:08;8.40;;;6.90;;
15699;SDS011;7950;42.744;23.174;2022-10-31T05:21:37;9.50;;;6.40;;
15699;SDS011;7950;42.744;23.174;2022-10-31T05:24:05;8.67;;;6.93;;
15699;SDS011;7950;42.744;23.174;2022-10-31T05:26:34;14.97;;;8.33;;
15699;SDS011;7950;42.744;23.174;2022-10-31T05:29:03;20.30;;;11.50;;
15699;SDS011;7950;42.744;23.174;2022-10-31T05:31:33;12.83;;;8.47;;
15699;SDS011;7950;42.744;23.174;2022-10-31T05:34:01;10.07;;;7.03;;
15699;SDS011;7950;42.744;23.174;2022-10-31T05:36:30;11.60;;;7.47;;
15699;SDS011;7950;42.744;23.174;2022-10-31T05:38:58;13.40;;;10.13;;
15699;SDS011;7950;42.744;23.174;2022-10-31T05:41:27;12.83;;;9.20;;
15699;SDS011;7950;42.744;23.174;2022-10-31T05:43:55;14.17;;;9.93;;
15699;SDS011;7950;42.744;23.174;2022-10-31T05:46:24;16.57;;;10.40;;
15699;SDS011;7950;42.744;23.174;2022-10-31T05:48:54;14.67;;;8.60;;
15699;SDS011;7950;42.744;23.174;2022-10-31T05:51:28;11.17;;;8.23;;
15699;SDS011;7950;42.744;23.174;2022-10-31T05:53:56;11.13;;;7.97;;
15699;SDS011;7950;42.744;23.174;2022-10-31T05:56:24;14.03;;;8.63;;
15699;SDS011;7950;42.744;23.174;2022-10-31T05:58:53;11.20;;;9.13;;
15699;SDS011;7950;42.744;23.174;2022-10-31T06:01:22;20.87;;;9.23;;
15699;SDS011;7950;42.744;23.174;2022-10-31T06:06:45;14.03;;;8.90;;
15699;SDS011;7950;42.744;23.174;2022-10-31T06:09:13;8.23;;;6.60;;
15699;SDS011;7950;42.744;23.174;2022-10-31T06:11:42;9.87;;;7.60;;
15699;SDS011;7950;42.744;23.174;2022-10-31T06:14:10;10.80;;;7.47;;
15699;SDS011;7950;42.744;23.174;2022-10-31T06:16:39;12.53;;;9.07;;
15699;SDS011;7950;42.744;23.174;2022-10-31T06:19:07;11.97;;;9.37;;
15699;SDS011;7950;42.744;23.174;2022-10-31T06:21:37;12.70;;;9.93;;
15699;SDS011;7950;42.744;23.174;2022-10-31T06:24:06;17.50;;;11.67;;
15699;SDS011;7950;42.744;23.174;2022-10-31T06:26:35;16.23;;;12.17;;
15699;SDS011;7950;42.744;23.174;2022-10-31T06:29:03;14.67;;;10.53;;
15699;SDS011;7950;42.744;23.174;2022-10-31T06:31:31;15.03;;;11.03;;
15699;SDS011;7950;42.744;23.174;2022-10-31T06:34:00;16.20;;;10.20;;
15699;SDS011;7950;42.744;23.174;2022-10-31T06:36:28;17.07;;;10.47;;
15699;SDS011;7950;42.744;23.174;2022-10-31T06:38:59;16.30;;;10.10;;
15699;SDS011;7950;42.744;23.174;2022-10-31T06:41:28;13.47;;;9.67;;
15699;SDS011;7950;42.744;23.174;2022-10-31T06:43:56;27.93;;;10.93;;
15699;SDS011;7950;42.744;23.174;2022-10-31T06:46:31;17.90;;;10.43;;
15699;SDS011;7950;42.744;23.174;2022-10-31T06:49:00;16.43;;;10.63;;
15699;SDS011;7950;42.744;23.174;2022-10-31T06:51:28;18.40;;;11.40;;
15699;SDS011;7950;42.744;23.174;2022-10-31T06:53:58;24.57;;;13.00;;
15699;SDS011;7950;42.744;23.174;2022-10-31T06:59:20;21.27;;;11.37;;
15699;SDS011;7950;42.744;23.174;2022-10-31T07:01:50;18.77;;;11.63;;
15699;SDS011;7950;42.744;23.174;2022-10-31T07:04:19;20.57;;;11.70;;
15699;SDS011;7950;42.744;23.174;2022-10-31T07:18:00;23.23;;;13.60;;
15699;SDS011;7950;42.744;23.174;2022-10-31T07:20:28;18.73;;;13.23;;
15699;SDS011;7950;42.744;23.174;2022-10-31T07:22:57;22.17;;;13.00;;
15699;SDS011;7950;42.744;23.174;2022-10-31T07:25:27;16.93;;;12.40;;
15699;SDS011;7950;42.744;23.174;2022-10-31T07:27:56;19.13;;;12.30;;
15699;SDS011;7950;42.744;23.174;2022-10-31T07:30:25;16.70;;;11.70;;
15699;SDS011;7950;42.744;23.174;2022-10-31T07:35:48;16.77;;;11.33;;
15699;SDS011;7950;42.744;23.174;2022-10-31T07:38:16;15.43;;;11.43;;
15699;SDS011;7950;42.744;23.174;2022-10-31T07:40:48;13.93;;;10.90;;
15699;SDS011;7950;42.744;23.174;2022-10-31T07:43:18;16.27;;;12.57;;
15699;SDS011;7950;42.744;23.174;2022-10-31T07:45:50;19.53;;;13.97;;
15699;SDS011;7950;42.744;23.174;2022-10-31T07:48:20;21.50;;;12.10;;
15699;SDS011;7950;42.744;23.174;2022-10-31T07:50:49;16.17;;;11.10;;
15699;SDS011;7950;42.744;23.174;2022-10-31T07:53:17;18.70;;;11.63;;
15699;SDS011;7950;42.744;23.174;2022-10-31T07:55:45;12.07;;;10.70;;
15699;SDS011;7950;42.744;23.174;2022-10-31T07:58:14;15.43;;;11.27;;
15699;SDS011;7950;42.744;23.174;2022-10-31T08:00:44;16.47;;;12.03;;
15699;SDS011;7950;42.744;23.174;2022-10-31T08:03:14;14.60;;;10.93;;
15699;SDS011;7950;42.744;23.174;2022-10-31T08:05:45;13.43;;;10.20;;
15699;SDS011;7950;42.744;23.174;2022-10-31T08:08:14;13.30;;;10.60;;
15699;SDS011;7950;42.744;23.174;2022-10-31T08:10:43;13.70;;;10.20;;
15699;SDS011;7950;42.744;23.174;2022-10-31T08:13:16;15.13;;;10.50;;
15699;SDS011;7950;42.744;23.174;2022-10-31T08:15:44;15.90;;;10.97;;
15699;SDS011;7950;42.744;23.174;2022-10-31T08:18:16;13.17;;;9.87;;
15699;SDS011;7950;42.744;23.174;2022-10-31T08:20:46;12.30;;;9.13;;
15699;SDS011;7950;42.744;23.174;2022-10-31T08:23:14;11.07;;;9.67;;
15699;SDS011;7950;42.744;23.174;2022-10-31T08:25:43;12.80;;;9.17;;
15699;SDS011;7950;42.744;23.174;2022-10-31T08:28:13;12.00;;;9.07;;
15699;SDS011;7950;42.744;23.174;2022-10-31T08:30:42;16.27;;;9.27;;
15699;SDS011;7950;42.744;23.174;2022-10-31T08:33:13;12.70;;;9.27;;
15699;SDS011;7950;42.744;23.174;2022-10-31T08:35:43;12.77;;;9.70;;
15699;SDS011;7950;42.744;23.174;2022-10-31T08:38:13;13.30;;;9.43;;
15699;SDS011;7950;42.744;23.174;2022-10-31T08:40:41;13.20;;;9.00;;
15699;SDS011;7950;42.744;23.174;2022-10-31T08:43:11;12.63;;;9.03;;
15699;SDS011;7950;42.744;23.174;2022-10-31T08:48:34;20.73;;;14.97;;
15699;SDS011;7950;42.744;23.174;2022-10-31T08:51:02;16.97;;;11.67;;
15699;SDS011;7950;42.744;23.174;2022-10-31T08:53:32;16.63;;;9.70;;
15699;SDS011;7950;42.744;23.174;2022-10-31T08:56:01;10.83;;;8.30;;
15699;SDS011;7950;42.744;23.174;2022-10-31T08:58:29;11.00;;;8.30;;
15699;SDS011;7950;42.744;23.174;2022-10-31T09:01:05;10.83;;;8.20;;
15699;SDS011;7950;42.744;23.174;2022-10-31T09:03:34;9.73;;;8.63;;
15699;SDS011;7950;42.744;23.174;2022-10-31T09:06:02;11.50;;;8.30;;
15699;SDS011;7950;42.744;23.174;2022-10-31T09:08:36;11.40;;;8.43;;
15699;SDS011;7950;42.744;23.174;2022-10-31T09:11:05;13.70;;;8.23;;
15699;SDS011;7950;42.744;23.174;2022-10-31T09:16:27;13.73;;;7.50;;
15699;SDS011;7950;42.744;23.174;2022-10-31T09:19:00;9.90;;;7.70;;
15699;SDS011;7950;42.744;23.174;2022-10-31T09:21:36;9.50;;;7.50;;
15699;SDS011;7950;42.744;23.174;2022-10-31T09:24:07;9.53;;;7.87;;
15699;SDS011;7950;42.744;23.174;2022-10-31T09:26:36;8.27;;;6.60;;
15699;SDS011;7950;42.744;23.174;2022-10-31T09:29:04;10.23;;;6.60;;
15699;SDS011;7950;42.744;23.174;2022-10-31T09:31:35;8.30;;;6.60;;
15699;SDS011;7950;42.744;23.174;2022-10-31T09:34:23;8.83;;;7.03;;
15699;SDS011;7950;42.744;23.174;2022-10-31T09:36:52;9.63;;;6.97;;
15699;SDS011;7950;42.744;23.174;2022-10-31T09:39:22;15.13;;;7.37;;
15699;SDS011;7950;42.744;23.174;2022-10-31T09:44:49;12.20;;;6.83;;
15699;SDS011;7950;42.744;23.174;2022-10-31T09:47:23;10.07;;;7.20;;
15699;SDS011;7950;42.744;23.174;2022-10-31T09:50:03;8.57;;;6.87;;
15699;SDS011;7950;42.744;23.174;2022-10-31T09:52:41;9.57;;;7.50;;
15699;SDS011;7950;42.744;23.174;2022-10-31T09:55:18;8.67;;;6.53;;
15699;SDS011;7950;42.744;23.174;2022-10-31T09:57:51;10.53;;;6.83;;
15699;SDS011;7950;42.744;23.174;2022-10-31T10:00:21;9.43;;;6.30;;
15699;SDS011;7950;42.744;23.174;2022-10-31T10:02:51;11.00;;;7.20;;
15699;SDS011;7950;42.744;23.174;2022-10-31T10:05:26;7.67;;;6.17;;
15699;SDS011;7950;42.744;23.174;2022-10-31T10:08:01;9.47;;;6.03;;
15699;SDS011;7950;42.744;23.174;2022-10-31T10:10:40;13.60;;;6.50;;
15699;SDS011;7950;42.744;23.174;2022-10-31T10:13:19;6.77;;;5.10;;
15699;SDS011;7950;42.744;23.174;2022-10-31T10:18:55;8.67;;;5.83;;
15699;SDS011;7950;42.744;23.174;2022-10-31T10:21:33;15.13;;;6.13;;
15699;SDS011;7950;42.744;23.174;2022-10-31T10:24:12;10.23;;;5.63;;
15699;SDS011;7950;42.744;23.174;2022-10-31T10:26:55;14.27;;;4.90;;
15699;SDS011;7950;42.744;23.174;2022-10-31T10:29:33;8.00;;;4.70;;
15699;SDS011;7950;42.744;23.174;2022-10-31T10:32:08;7.07;;;4.10;;
15699;SDS011;7950;42.744;23.174;2022-10-31T10:34:41;7.47;;;3.93;;
15699;SDS011;7950;42.744;23.174;2022-10-31T10:37:20;8.03;;;4.10;;
15699;SDS011;7950;42.744;23.174;2022-10-31T10:39:55;8.03;;;3.97;;
15699;SDS011;7950;42.744;23.174;2022-10-31T10:42:30;6.87;;;4.37;;
15699;SDS011;7950;42.744;23.174;2022-10-31T10:45:30;5.97;;;4.37;;
15699;SDS011;7950;42.744;23.174;2022-10-31T10:48:20;4.90;;;3.90;;
15699;SDS011;7950;42.744;23.174;2022-10-31T10:50:56;8.43;;;4.43;;
15699;SDS011;7950;42.744;23.174;2022-10-31T10:53:33;8.30;;;4.23;;
15699;SDS011;7950;42.744;23.174;2022-10-31T10:56:30;6.67;;;4.50;;
15699;SDS011;7950;42.744;23.174;2022-10-31T10:59:07;8.23;;;4.53;;
15699;SDS011;7950;42.744;23.174;2022-10-31T11:01:39;11.03;;;5.30;;
15699;SDS011;7950;42.744;23.174;2022-10-31T11:04:14;8.77;;;5.00;;
15699;SDS011;7950;42.744;23.174;2022-10-31T11:06:57;15.27;;;5.30;;
15699;SDS011;7950;42.744;23.174;2022-10-31T11:09:26;10.00;;;4.80;;
15699;SDS011;7950;42.744;23.174;2022-10-31T11:11:54;6.80;;;5.40;;
15699;SDS011;7950;42.744;23.174;2022-10-31T11:14:25;8.90;;;5.17;;
15699;SDS011;7950;42.744;23.174;2022-10-31T11:16:56;10.50;;;5.63;;
15699;SDS011;7950;42.744;23.174;2022-10-31T11:19:37;6.93;;;5.03;;
15699;SDS011;7950;42.744;23.174;2022-10-31T11:22:06;10.47;;;5.20;;
15699;SDS011;7950;42.744;23.174;2022-10-31T11:24:39;7.57;;;5.17;;
15699;SDS011;7950;42.744;23.174;2022-10-31T11:27:11;15.87;;;5.37;;
15699;SDS011;7950;42.744;23.174;2022-10-31T11:29:43;7.97;;;4.73;;
15699;SDS011;7950;42.744;23.174;2022-10-31T11:32:16;12.00;;;5.30;;
15699;SDS011;7950;42.744;23.174;2022-10-31T11:34:48;6.73;;;4.87;;
15699;SDS011;7950;42.744;23.174;2022-10-31T11:37:20;8.50;;;5.00;;
15699;SDS011;7950;42.744;23.174;2022-10-31T11:39:53;5.40;;;4.03;;
15699;SDS011;7950;42.744;23.174;2022-10-31T11:42:27;6.73;;;4.10;;
15699;SDS011;7950;42.744;23.174;2022-10-31T11:44:59;7.07;;;4.73;;
15699;SDS011;7950;42.744;23.174;2022-10-31T11:47:34;5.83;;;4.70;;
15699;SDS011;7950;42.744;23.174;2022-10-31T11:50:08;10.60;;;4.50;;
15699;SDS011;7950;42.744;23.174;2022-10-31T11:52:39;7.87;;;4.23;;
15699;SDS011;7950;42.744;23.174;2022-10-31T11:57:59;9.83;;;4.10;;
15699;SDS011;7950;42.744;23.174;2022-10-31T12:00:30;8.00;;;3.80;;
15699;SDS011;7950;42.744;23.174;2022-10-31T12:03:10;8.60;;;3.90;;
15699;SDS011;7950;42.744;23.174;2022-10-31T12:05:44;7.57;;;3.90;;
15699;SDS011;7950;42.744;23.174;2022-10-31T12:08:15;6.50;;;3.90;;
15699;SDS011;7950;42.744;23.174;2022-10-31T12:10:58;7.77;;;4.13;;
15699;SDS011;7950;42.744;23.174;2022-10-31T12:13:34;8.73;;;4.13;;
15699;SDS011;7950;42.744;23.174;2022-10-31T12:16:08;7.67;;;4.00;;
15699;SDS011;7950;42.744;23.174;2022-10-31T12:18:48;6.90;;;3.80;;
15699;SDS011;7950;42.744;23.174;2022-10-31T12:21:33;8.20;;;3.53;;
15699;SDS011;7950;42.744;23.174;2022-10-31T12:24:18;9.27;;;4.10;;
15699;SDS011;7950;42.744;23.174;2022-10-31T12:27:04;5.83;;;3.40;;
15699;SDS011;7950;42.744;23.174;2022-10-31T12:29:48;5.50;;;3.73;;
15699;SDS011;7950;42.744;23.174;2022-10-31T12:32:56;8.23;;;3.17;;
15699;SDS011;7950;42.744;23.174;2022-10-31T12:35:40;9.23;;;4.10;;
15699;SDS011;7950;42.744;23.174;2022-10-31T12:41:22;8.23;;;3.97;;
15699;SDS011;7950;42.744;23.174;2022-10-31T12:44:11;10.83;;;4.10;;
15699;SDS011;7950;42.744;23.174;2022-10-31T12:46:53;11.30;;;3.93;;
15699;SDS011;7950;42.744;23.174;2022-10-31T12:49:41;8.77;;;4.17;;
15699;SDS011;7950;42.744;23.174;2022-10-31T12:52:19;7.23;;;4.00;;
15699;SDS011;7950;42.744;23.174;2022-10-31T12:55:03;13.20;;;4.60;;
15699;SDS011;7950;42.744;23.174;2022-10-31T12:57:44;12.07;;;4.90;;
15699;SDS011;7950;42.744;23.174;2022-10-31T13:00:15;12.70;;;4.83;;
15699;SDS011;7950;42.744;23.174;2022-10-31T13:02:47;8.00;;;4.40;;
15699;SDS011;7950;42.744;23.174;2022-10-31T13:05:22;7.87;;;3.60;;
15699;SDS011;7950;42.744;23.174;2022-10-31T13:07:55;12.13;;;3.80;;
15699;SDS011;7950;42.744;23.174;2022-10-31T13:10:29;5.97;;;3.80;;
15699;SDS011;7950;42.744;23.174;2022-10-31T13:13:00;7.30;;;4.20;;
15699;SDS011;7950;42.744;23.174;2022-10-31T13:15:35;8.97;;;4.50;;
15699;SDS011;7950;42.744;23.174;2022-10-31T13:18:18;8.23;;;4.07;;
15699;SDS011;7950;42.744;23.174;2022-10-31T13:20:54;18.53;;;10.17;;
15699;SDS011;7950;42.744;23.174;2022-10-31T13:23:26;19.23;;;4.70;;
15699;SDS011;7950;42.744;23.174;2022-10-31T13:26:20;9.10;;;2.50;;
15699;SDS011;7950;42.744;23.174;2022-10-31T13:28:54;7.77;;;3.30;;
15699;SDS011;7950;42.744;23.174;2022-10-31T13:31:27;8.13;;;3.00;;
15699;SDS011;7950;42.744;23.174;2022-10-31T13:33:56;7.90;;;3.07;;
15699;SDS011;7950;42.744;23.174;2022-10-31T13:36:31;8.73;;;3.70;;
15699;SDS011;7950;42.744;23.174;2022-10-31T13:39:20;8.40;;;4.63;;
15699;SDS011;7950;42.744;23.174;2022-10-31T13:42:10;8.33;;;2.67;;
15699;SDS011;7950;42.744;23.174;2022-10-31T13:44:43;9.33;;;2.50;;
15699;SDS011;7950;42.744;23.174;2022-10-31T13:47:20;13.93;;;3.20;;
15699;SDS011;7950;42.744;23.174;2022-10-31T13:49:50;10.13;;;2.53;;
15699;SDS011;7950;42.744;23.174;2022-10-31T13:52:24;11.53;;;2.33;;
15699;SDS011;7950;42.744;23.174;2022-10-31T13:54:54;12.77;;;2.67;;
15699;SDS011;7950;42.744;23.174;2022-10-31T13:57:28;8.20;;;2.60;;
15699;SDS011;7950;42.744;23.174;2022-10-31T14:00:01;7.83;;;2.70;;
15699;SDS011;7950;42.744;23.174;2022-10-31T14:02:32;12.07;;;3.00;;
15699;SDS011;7950;42.744;23.174;2022-10-31T14:05:04;7.20;;;2.10;;
15699;SDS011;7950;42.744;23.174;2022-10-31T14:10:49;6.20;;;3.07;;
15699;SDS011;7950;42.744;23.174;2022-10-31T14:13:20;7.07;;;3.30;;
15699;SDS011;7950;42.744;23.174;2022-10-31T14:15:52;10.43;;;2.30;;
15699;SDS011;7950;42.744;23.174;2022-10-31T14:18:24;11.20;;;2.67;;
15699;SDS011;7950;42.744;23.174;2022-10-31T14:20:58;8.77;;;2.50;;
15699;SDS011;7950;42.744;23.174;2022-10-31T14:23:34;6.50;;;1.90;;
15699;SDS011;7950;42.744;23.174;2022-10-31T14:31:58;9.73;;;2.70;;
15699;SDS011;7950;42.744;23.174;2022-10-31T14:34:34;8.60;;;3.13;;
15699;SDS011;7950;42.744;23.174;2022-10-31T14:37:24;11.00;;;2.43;;
15699;SDS011;7950;42.744;23.174;2022-10-31T14:43:09;7.93;;;2.10;;
15699;SDS011;7950;42.744;23.174;2022-10-31T14:46:01;10.00;;;2.10;;
15699;SDS011;7950;42.744;23.174;2022-10-31T14:51:41;21.13;;;3.63;;
15699;SDS011;7950;42.744;23.174;2022-10-31T14:54:14;10.80;;;3.10;;
15699;SDS011;7950;42.744;23.174;2022-10-31T14:56:48;10.53;;;2.53;;
15699;SDS011;7950;42.744;23.174;2022-10-31T14:59:19;5.93;;;2.70;;
15699;SDS011;7950;42.744;23.174;2022-10-31T15:01:53;6.27;;;2.23;;
15699;SDS011;7950;42.744;23.174;2022-10-31T15:04:26;22.43;;;8.73;;
15699;SDS011;7950;42.744;23.174;2022-10-31T15:06:59;40.10;;;15.10;;
15699;SDS011;7950;42.744;23.174;2022-10-31T15:09:31;28.37;;;12.23;;
15699;SDS011;7950;42.744;23.174;2022-10-31T15:12:16;25.43;;;9.10;;
15699;SDS011;7950;42.744;23.174;2022-10-31T15:14:51;18.80;;;7.13;;
15699;SDS011;7950;42.744;23.174;2022-10-31T15:17:19;16.53;;;6.40;;
15699;SDS011;7950;42.744;23.174;2022-10-31T15:19:49;9.13;;;4.30;;
15699;SDS011;7950;42.744;23.174;2022-10-31T15:22:19;7.07;;;3.57;;
15699;SDS011;7950;42.744;23.174;2022-10-31T15:24:50;9.57;;;4.87;;
15699;SDS011;7950;42.744;23.174;2022-10-31T15:27:24;11.90;;;4.43;;
15699;SDS011;7950;42.744;23.174;2022-10-31T15:29:53;10.90;;;4.70;;
15699;SDS011;7950;42.744;23.174;2022-10-31T15:32:23;15.13;;;6.80;;
15699;SDS011;7950;42.744;23.174;2022-10-31T15:34:53;18.17;;;7.93;;
15699;SDS011;7950;42.744;23.174;2022-10-31T15:37:23;11.67;;;5.80;;
15699;SDS011;7950;42.744;23.174;2022-10-31T15:39:53;29.30;;;12.03;;
15699;SDS011;7950;42.744;23.174;2022-10-31T15:42:22;21.40;;;9.30;;
15699;SDS011;7950;42.744;23.174;2022-10-31T15:44:58;25.27;;;9.73;;
15699;SDS011;7950;42.744;23.174;2022-10-31T15:47:30;16.10;;;6.73;;
15699;SDS011;7950;42.744;23.174;2022-10-31T15:49:59;11.20;;;4.97;;
15699;SDS011;7950;42.744;23.174;2022-10-31T15:52:36;113.63;;;48.53;;
15699;SDS011;7950;42.744;23.174;2022-10-31T15:55:15;264.70;;;117.30;;
15699;SDS011;7950;42.744;23.174;2022-10-31T15:57:48;352.47;;;154.33;;
15699;SDS011;7950;42.744;23.174;2022-10-31T16:00:23;141.90;;;69.33;;
15699;SDS011;7950;42.744;23.174;2022-10-31T16:03:04;154.43;;;83.07;;
15699;SDS011;7950;42.744;23.174;2022-10-31T16:05:34;108.37;;;56.23;;
15699;SDS011;7950;42.744;23.174;2022-10-31T16:10:50;56.43;;;27.83;;
15699;SDS011;7950;42.744;23.174;2022-10-31T16:13:22;24.73;;;12.47;;
15699;SDS011;7950;42.744;23.174;2022-10-31T16:15:54;16.43;;;7.47;;
15699;SDS011;7950;42.744;23.174;2022-10-31T16:18:44;13.83;;;7.73;;
15699;SDS011;7950;42.744;23.174;2022-10-31T16:21:13;26.50;;;13.60;;
15699;SDS011;7950;42.744;23.174;2022-10-31T16:23:45;15.77;;;8.53;;
15699;SDS011;7950;42.744;23.174;2022-10-31T16:26:23;9.63;;;6.03;;
15699;SDS011;7950;42.744;23.174;2022-10-31T16:28:55;16.83;;;6.00;;
15699;SDS011;7950;42.744;23.174;2022-10-31T16:31:38;13.17;;;6.20;;
15699;SDS011;7950;42.744;23.174;2022-10-31T16:34:13;15.67;;;6.20;;